Munnerlyn, Georgia
Current Conditions -  °F | °C
As of 5:11 PM on Sunday 21 Dec 2014 (Local Time) from KAGS Reporting Station
Overcast Overcast  
Wind Chill: 50°   Ceiling: 2800
Heat Index: 50°   Visibility: 10mi
Dew Point: 45°   Wind: 6mph
Humidity: 83%   Direction: 130°SE
Pressure: 30.14"   Gusts: NA
Location:  33.0894°N, 81.978°W
Report Text: KAGS 212211Z 13005KT 10SM BKN028 OVC047 10/07 A3014 RMK AO2 RAE05 P0000 T01000072
Loading
Personal Weather Stations






























Interactive Weather Map New forecast layout! Learn more

10-Day Weather Forecast

Advertisements
Track Severe Weather on mobile